Key West, FL

3:05 AM EDT on August 21, 2014 (GMT -0400)
Old Town Key West | Change Station
CLOSE
Current Station
Personal Weather Station
Location: Key West, FL
Elevation: 7 ft
Nearby Weather Stations

Elev 7 ft 24.56 °N, 81.79 °W | Updated 15 days ago

Thunderstorm
Thunderstorm
84 °F
Feels Like 91 °F
N
9
Wind Variable Wind from East
Gusts 12 mph

Today
High -- | Low -- °F
--% Chance of Precip.
Yesterday
High -- | Low -- °F
Precip. -- in
7:04 AM 7:56 PM
Waning Crescent, 16% visible
Pressure 30.07 in
Visibility 10.0 miles
Clouds Clear
Heat Index 91 °F
Dew Point 75 °F
Humidity 74%
Rainfall 0.04 in
Snow Depth Not available.
UV 0 out of 12
Pollen 5.30 out of 12
Air Quality Not available.
Flu Activity Not available.
METAR KEYW 210653Z AUTO 04004KT 10SM CLR 28/24 A3007 RMK AO2 SLP181 T02830239

More Conditions Fewer Conditions

Pressure 30.07 in
Visibility 10.0 miles
Clouds Clear
Heat Index 91 °F
Dew Point 75 °F
Humidity 74%
Rainfall 0.04 in
Snow Depth Not available.
UV 0 out of 12
Pollen 5.30 out of 12
Air Quality Not available.
Flu Activity Not available.
METAR KEYW 210653Z AUTO 04004KT 10SM CLR 28/24 A3007 RMK AO2 SLP181 T02830239

More Conditions Fewer Conditions

Nowcast | as of 2:13 am EDT on August 21, 2014

Through 330 am...isolated showers and thunderstorms will track west southwestward at 15 knots over the Gulf and Atlantic waters surrounding the Florida Keys. The stronger showers and thunderstorms...over The Straits...will produce wind gusts near 25 knots...heavy downpours...and a few lightning strikes. Brief light to moderate showers may pass across a few island locations early this morning.

×

10-Day Weather Forecast

Almanac

Astronomy

Aug. 21, 2014 Rise Set
Actual Time 7:04 AM EDT 7:56 PM EDT
Civil Twilight 6:40 AM EDT 8:19 PM EDT
Nautical Twilight 6:12 AM EDT 8:47 PM EDT
Astronomical Twilight 5:44 AM EDT 9:15 PM EDT
Moon 3:43 AM EDT 5:14 PM EDT
Length of Visible Light 13h 38m
Length of Day
12h 51m
Tomorrow will be 1m 18s shorter.
Waning Crescent, 16% of the Moon is Illuminated
Today
Waning Crescent
Aug 25
New
Sep 2
First Quarter
Sep 8
Full
Sep 15
Last Quarter

Today's Extremes

State Highs State Lows

Community

WunderPhotos

Upload Photos

1,745,858 photos uploaded!

Nearby

Snow Depth

Station Depth Elevation
No new snow has been reported.

Earthquake Activity

City Distance Mag. Time & Date
No recent earthquake activity has been reported nearby.
Minimum magnitude displayed is 2.5.

Coastal Water Temperatures

Place Temperature
Key West, FL 89.1 °F
Vaca Key, FL 91.0 °F

Nearby Weather Stations